Terminal Aerodrome Forecast
Issued by NWS

Home | Current Version | Previous Version | Text Only | Print | Product List | Glossary On
Versions: 1 2 3 4 5 6 7 8 9 10 11 12 13 14 15 16 17 18 19 20 21 22 23 24 25 26 27 28 29 30 31 32 33 34 35 36 37 38
000
FTUS45 KGJT 120010 AAA
TAFRIL
TAF AMD
KRIL 120010Z 1200/1224 VRB05KT P6SM -TSRA SCT060 BKN100CB
     FM120100 10008KT P6SM VCTS SCT070 SCT090CB BKN150
     FM120600 VRB04KT P6SM SCT100 BKN250
     FM120900 VRB03KT P6SM SCT250
     FM121900 33007KT P6SM SCT090 SCT150=

USA.gov is the U.S. government's official web portal to all federal, state and local government web resources and services.